DAAG/ALG METAR and TAF weather

Enter ICAO airport designator
Station Type Date Time Source
DAAG METAR 2021/05/12 01:00 UTC NOAA

DAAG 120100Z 20005KT CAVOK 12/09 Q1022


Station Type Date Time Source
DAAG Decoded METAR 2021/05/12 01:00 UTC NOAA

Dar-El-Beida, Algeria (DAAG) 36-43N 003-15E 25M
May 11, 2021 - 09:00 PM EDT / 2021.05.12 0100 UTC
Wind: from the SSW (200 degrees) at 6 MPH (5 KT):0
Visibility: greater than 7 mile(s):0
Temperature: 53 F (12 C)
Dew Point: 48 F (9 C)
Relative Humidity: 81%
Pressure (altimeter): 30.18 in. Hg (1022 hPa)
ob: DAAG 120100Z 20005KT CAVOK 12/09 Q1022
cycle: 1

Station Type Date Time Source
DAAG TAF 2021/05/11 18:33 UTC NOAA

TAF TAF DAAG 111700Z 1118/1218 30010KT 9999 FEW026
BECMG 1119/1121 VRB02KT
BECMG 1209/1212 35010KT

Example: see airport list